sensor_id;sensor_type;location;lat;lon;timestamp;pressure;altitude;pressure_sealevel;temperature;humidity
16100;BME280;8154;50.830;12.082;2023-04-09T00:00:43;100330.72;;;22.45;34.42
16100;BME280;8154;50.830;12.082;2023-04-09T00:03:10;100324.38;;;22.46;34.20
16100;BME280;8154;50.830;12.082;2023-04-09T00:05:39;100330.38;;;22.48;34.13
16100;BME280;8154;50.830;12.082;2023-04-09T00:08:06;100329.06;;;22.52;34.09
16100;BME280;8154;50.830;12.082;2023-04-09T00:10:32;100325.41;;;22.53;33.96
16100;BME280;8154;50.830;12.082;2023-04-09T00:12:58;100323.09;;;22.58;33.96
16100;BME280;8154;50.830;12.082;2023-04-09T00:15:24;100325.22;;;22.39;34.22
16100;BME280;8154;50.830;12.082;2023-04-09T00:17:50;100318.56;;;22.27;34.45
16100;BME280;8154;50.830;12.082;2023-04-09T00:20:17;100322.56;;;22.39;34.28
16100;BME280;8154;50.830;12.082;2023-04-09T00:22:43;100317.41;;;22.45;34.10
16100;BME280;8154;50.830;12.082;2023-04-09T00:25:09;100320.72;;;22.47;34.12
16100;BME280;8154;50.830;12.082;2023-04-09T00:27:35;100323.72;;;22.52;34.12
16100;BME280;8154;50.830;12.082;2023-04-09T00:30:01;100319.91;;;22.55;34.05
16100;BME280;8154;50.830;12.082;2023-04-09T02:31:43;100345.03;;;22.36;34.12
16100;BME280;8154;50.830;12.082;2023-04-09T02:34:10;100348.50;;;22.37;34.37
16100;BME280;8154;50.830;12.082;2023-04-09T02:36:36;100350.69;;;22.17;34.58
16100;BME280;8154;50.830;12.082;2023-04-09T02:39:02;100345.84;;;22.05;34.77
16100;BME280;8154;50.830;12.082;2023-04-09T02:41:28;100347.19;;;22.25;34.41
16100;BME280;8154;50.830;12.082;2023-04-09T02:43:55;100348.69;;;22.35;34.27
16100;BME280;8154;50.830;12.082;2023-04-09T02:46:20;100350.03;;;22.39;34.30
16100;BME280;8154;50.830;12.082;2023-04-09T02:48:47;100343.53;;;22.42;34.09
16100;BME280;8154;50.830;12.082;2023-04-09T02:51:13;100345.22;;;22.43;33.93
16100;BME280;8154;50.830;12.082;2023-04-09T02:53:39;100336.72;;;22.47;34.00
16100;BME280;8154;50.830;12.082;2023-04-09T02:56:05;100343.19;;;22.45;33.89
16100;BME280;8154;50.830;12.082;2023-04-09T02:58:31;100350.53;;;22.43;34.10
16100;BME280;8154;50.830;12.082;2023-04-09T03:00:57;100342.53;;;22.35;34.19
16100;BME280;8154;50.830;12.082;2023-04-09T03:03:23;100352.50;;;22.17;34.57
16100;BME280;8154;50.830;12.082;2023-04-09T03:05:49;100345.19;;;22.27;34.41
16100;BME280;8154;50.830;12.082;2023-04-09T03:08:16;100336.03;;;22.37;34.14
16100;BME280;8154;50.830;12.082;2023-04-09T03:10:42;100331.38;;;22.39;34.09
16100;BME280;8154;50.830;12.082;2023-04-09T03:13:08;100333.22;;;22.39;34.27
16100;BME280;8154;50.830;12.082;2023-04-09T03:15:34;100324.72;;;22.43;33.92
16100;BME280;8154;50.830;12.082;2023-04-09T03:18:00;100334.22;;;22.46;33.99
16100;BME280;8154;50.830;12.082;2023-04-09T03:20:26;100333.88;;;22.49;34.03
16100;BME280;8154;50.830;12.082;2023-04-09T03:22:52;100333.22;;;22.47;33.98
16100;BME280;8154;50.830;12.082;2023-04-09T03:25:18;100338.38;;;22.32;34.13
16100;BME280;8154;50.830;12.082;2023-04-09T03:27:45;100338.06;;;22.27;34.30
16100;BME280;8154;50.830;12.082;2023-04-09T03:30:11;100333.38;;;22.29;34.19
16100;BME280;8154;50.830;12.082;2023-04-09T03:32:37;100334.22;;;22.38;34.13
16100;BME280;8154;50.830;12.082;2023-04-09T03:35:03;100331.91;;;22.43;33.93
16100;BME280;8154;50.830;12.082;2023-04-09T03:37:30;100335.69;;;22.40;34.00
16100;BME280;8154;50.830;12.082;2023-04-09T03:39:56;100331.72;;;22.44;33.89
16100;BME280;8154;50.830;12.082;2023-04-09T03:42:22;100334.56;;;22.43;33.89
16100;BME280;8154;50.830;12.082;2023-04-09T03:44:48;100338.88;;;22.44;33.86
16100;BME280;8154;50.830;12.082;2023-04-09T03:47:14;100329.38;;;22.49;33.86
16100;BME280;8154;50.830;12.082;2023-04-09T03:49:40;100331.56;;;22.46;33.95
16100;BME280;8154;50.830;12.082;2023-04-09T03:52:06;100331.72;;;22.28;34.21
16100;BME280;8154;50.830;12.082;2023-04-09T03:54:32;100340.72;;;22.27;34.11
16100;BME280;8154;50.830;12.082;2023-04-09T03:56:58;100340.06;;;22.33;34.09
16100;BME280;8154;50.830;12.082;2023-04-09T03:59:24;100340.22;;;22.40;33.98
16100;BME280;8154;50.830;12.082;2023-04-09T04:01:49;100336.38;;;22.42;34.01
16100;BME280;8154;50.830;12.082;2023-04-09T04:04:16;100331.38;;;22.47;33.85
16100;BME280;8154;50.830;12.082;2023-04-09T04:06:42;100345.34;;;22.49;33.88
16100;BME280;8154;50.830;12.082;2023-04-09T04:09:08;100341.19;;;22.47;33.85
16100;BME280;8154;50.830;12.082;2023-04-09T04:11:34;100341.38;;;22.45;33.78
16100;BME280;8154;50.830;12.082;2023-04-09T04:14:00;100349.03;;;22.48;33.68
16100;BME280;8154;50.830;12.082;2023-04-09T04:16:26;100349.19;;;22.47;33.77
16100;BME280;8154;50.830;12.082;2023-04-09T04:18:52;100360.84;;;22.46;33.85
16100;BME280;8154;50.830;12.082;2023-04-09T04:21:18;100363.84;;;22.43;33.88
16100;BME280;8154;50.830;12.082;2023-04-09T04:23:44;100366.34;;;22.44;33.94
16100;BME280;8154;50.830;12.082;2023-04-09T04:26:11;100370.34;;;22.24;34.23
16100;BME280;8154;50.830;12.082;2023-04-09T04:28:37;100379.63;;;22.12;34.67
16100;BME280;8154;50.830;12.082;2023-04-09T04:31:07;100375.66;;;22.24;34.30
16100;BME280;8154;50.830;12.082;2023-04-09T06:35:59;100422.94;;;22.22;34.25
16100;BME280;8154;50.830;12.082;2023-04-09T06:38:25;100424.06;;;22.12;34.39
16100;BME280;8154;50.830;12.082;2023-04-09T06:40:52;100423.09;;;22.21;34.32
16100;BME280;8154;50.830;12.082;2023-04-09T06:43:18;100420.28;;;22.30;34.15
16100;BME280;8154;50.830;12.082;2023-04-09T06:45:44;100428.75;;;22.18;34.46
16100;BME280;8154;50.830;12.082;2023-04-09T06:48:10;100431.38;;;22.10;34.60
16100;BME280;8154;50.830;12.082;2023-04-09T06:50:36;100431.75;;;22.15;34.73
16100;BME280;8154;50.830;12.082;2023-04-09T06:53:02;100435.41;;;22.30;34.39
16100;BME280;8154;50.830;12.082;2023-04-09T06:55:28;100440.09;;;22.36;34.09
16100;BME280;8154;50.830;12.082;2023-04-09T06:57:54;100431.59;;;22.40;34.08
16100;BME280;8154;50.830;12.082;2023-04-09T07:00:20;100434.56;;;22.29;34.22
16100;BME280;8154;50.830;12.082;2023-04-09T07:02:48;100435.69;;;22.11;34.43
16100;BME280;8154;50.830;12.082;2023-04-09T07:05:14;100434.72;;;22.12;34.58
16100;BME280;8154;50.830;12.082;2023-04-09T07:07:41;100433.25;;;22.25;34.24
16100;BME280;8154;50.830;12.082;2023-04-09T07:10:07;100434.91;;;22.34;34.15
16100;BME280;8154;50.830;12.082;2023-04-09T07:12:33;100437.25;;;22.37;34.14
16100;BME280;8154;50.830;12.082;2023-04-09T07:15:04;100447.72;;;22.31;34.29
16100;BME280;8154;50.830;12.082;2023-04-09T07:17:32;100445.22;;;22.13;34.67
16100;BME280;8154;50.830;12.082;2023-04-09T07:19:58;100452.53;;;22.11;34.60
16100;BME280;8154;50.830;12.082;2023-04-09T07:22:25;100461.22;;;22.29;34.32
16100;BME280;8154;50.830;12.082;2023-04-09T07:24:52;100453.59;;;22.42;34.10
16100;BME280;8154;50.830;12.082;2023-04-09T07:27:23;100454.44;;;22.43;34.09
16100;BME280;8154;50.830;12.082;2023-04-09T07:29:49;100457.25;;;22.41;34.09
16100;BME280;8154;50.830;12.082;2023-04-09T07:32:15;100456.50;;;22.15;34.59
16100;BME280;8154;50.830;12.082;2023-04-09T08:36:20;100467.50;;;22.20;34.51
16100;BME280;8154;50.830;12.082;2023-04-09T08:38:47;100460.31;;;22.05;34.75
16100;BME280;8154;50.830;12.082;2023-04-09T08:41:23;100461.38;;;22.20;34.62
16100;BME280;8154;50.830;12.082;2023-04-09T08:43:51;100455.22;;;22.27;34.51
16100;BME280;8154;50.830;12.082;2023-04-09T08:46:19;100451.22;;;22.31;34.43
16100;BME280;8154;50.830;12.082;2023-04-09T08:48:48;100450.06;;;22.26;34.54
16100;BME280;8154;50.830;12.082;2023-04-09T08:51:16;100445.91;;;22.31;34.54
16100;BME280;8154;50.830;12.082;2023-04-09T08:53:45;100453.22;;;22.29;34.49
16100;BME280;8154;50.830;12.082;2023-04-09T08:56:15;100449.03;;;22.19;34.66
16100;BME280;8154;50.830;12.082;2023-04-09T08:58:43;100456.84;;;22.12;34.75
16100;BME280;8154;50.830;12.082;2023-04-09T09:01:30;100458.19;;;22.08;34.87
16100;BME280;8154;50.830;12.082;2023-04-09T09:04:02;100452.16;;;22.06;34.88
16100;BME280;8154;50.830;12.082;2023-04-09T09:06:30;100451.34;;;22.06;34.94
16100;BME280;8154;50.830;12.082;2023-04-09T09:09:07;100452.16;;;22.06;34.96
16100;BME280;8154;50.830;12.082;2023-04-09T09:11:47;100463.78;;;21.97;35.10
16100;BME280;8154;50.830;12.082;2023-04-09T09:14:18;100465.13;;;21.93;35.25
16100;BME280;8154;50.830;12.082;2023-04-09T09:21:59;100459.16;;;21.99;35.21
16100;BME280;8154;50.830;12.082;2023-04-09T09:24:25;100457.63;;;21.97;35.21
16100;BME280;8154;50.830;12.082;2023-04-09T09:26:52;100460.44;;;21.95;35.25
16100;BME280;8154;50.830;12.082;2023-04-09T09:29:19;100465.13;;;21.93;35.33
16100;BME280;8154;50.830;12.082;2023-04-09T09:31:47;100459.31;;;21.98;35.21
16100;BME280;8154;50.830;12.082;2023-04-09T09:34:16;100455.66;;;21.99;35.22
16100;BME280;8154;50.830;12.082;2023-04-09T11:36:09;100351.88;;;22.15;35.32
16100;BME280;8154;50.830;12.082;2023-04-09T11:38:36;100351.69;;;22.16;35.27
16100;BME280;8154;50.830;12.082;2023-04-09T11:41:03;100345.69;;;22.14;35.56
16100;BME280;8154;50.830;12.082;2023-04-09T11:43:29;100346.69;;;22.13;35.41
16100;BME280;8154;50.830;12.082;2023-04-09T11:45:55;100341.53;;;22.12;35.23
16100;BME280;8154;50.830;12.082;2023-04-09T11:48:22;100334.19;;;22.14;35.38
16100;BME280;8154;50.830;12.082;2023-04-09T11:50:49;100344.69;;;22.15;35.43
16100;BME280;8154;50.830;12.082;2023-04-09T11:53:20;100344.22;;;22.20;35.48
16100;BME280;8154;50.830;12.082;2023-04-09T11:55:51;100341.69;;;22.18;35.43
16100;BME280;8154;50.830;12.082;2023-04-09T11:58:20;100340.72;;;22.19;35.26
16100;BME280;8154;50.830;12.082;2023-04-09T12:00:46;100340.88;;;22.18;35.35
16100;BME280;8154;50.830;12.082;2023-04-09T12:03:12;100333.88;;;22.17;35.35
16100;BME280;8154;50.830;12.082;2023-04-09T12:05:44;100335.56;;;22.18;35.38
16100;BME280;8154;50.830;12.082;2023-04-09T12:08:12;100333.22;;;22.23;35.19
16100;BME280;8154;50.830;12.082;2023-04-09T12:10:38;100339.53;;;22.22;35.21
16100;BME280;8154;50.830;12.082;2023-04-09T12:13:06;100335.91;;;22.23;35.27
16100;BME280;8154;50.830;12.082;2023-04-09T12:15:34;100326.38;;;22.20;35.28
16100;BME280;8154;50.830;12.082;2023-04-09T12:18:00;100324.56;;;22.21;35.28
16100;BME280;8154;50.830;12.082;2023-04-09T12:20:32;100327.22;;;22.21;35.31
16100;BME280;8154;50.830;12.082;2023-04-09T12:22:59;100322.41;;;22.24;35.21
16100;BME280;8154;50.830;12.082;2023-04-09T12:25:26;100326.91;;;22.24;35.09
16100;BME280;8154;50.830;12.082;2023-04-09T12:27:53;100327.91;;;22.23;35.18
16100;BME280;8154;50.830;12.082;2023-04-09T12:30:20;100326.22;;;22.22;35.25
16100;BME280;8154;50.830;12.082;2023-04-09T12:32:47;100323.72;;;22.20;35.31
16100;BME280;8154;50.830;12.082;2023-04-09T12:35:13;100329.06;;;22.20;35.33
16100;BME280;8154;50.830;12.082;2023-04-09T15:38:54;100212.41;;;22.08;35.52
16100;BME280;8154;50.830;12.082;2023-04-09T15:41:20;100219.91;;;22.04;35.47
16100;BME280;8154;50.830;12.082;2023-04-09T15:43:49;100210.75;;;22.07;35.35
16100;BME280;8154;50.830;12.082;2023-04-09T15:46:16;100215.25;;;22.06;35.50
16100;BME280;8154;50.830;12.082;2023-04-09T15:48:43;100214.75;;;22.03;35.52
16100;BME280;8154;50.830;12.082;2023-04-09T15:51:10;100210.41;;;22.02;35.48
16100;BME280;8154;50.830;12.082;2023-04-09T15:53:36;100219.25;;;22.02;35.56
16100;BME280;8154;50.830;12.082;2023-04-09T15:56:02;100215.56;;;22.03;35.43
16100;BME280;8154;50.830;12.082;2023-04-09T15:58:30;100214.75;;;22.03;35.48
16100;BME280;8154;50.830;12.082;2023-04-09T16:00:56;100210.59;;;22.00;35.50
16100;BME280;8154;50.830;12.082;2023-04-09T16:03:22;100216.06;;;21.99;35.57
16100;BME280;8154;50.830;12.082;2023-04-09T16:05:48;100221.56;;;22.05;35.41
16100;BME280;8154;50.830;12.082;2023-04-09T16:08:15;100221.41;;;22.07;35.27
16100;BME280;8154;50.830;12.082;2023-04-09T16:10:42;100220.41;;;22.08;35.42
16100;BME280;8154;50.830;12.082;2023-04-09T16:13:09;100213.59;;;22.05;35.35
16100;BME280;8154;50.830;12.082;2023-04-09T16:15:34;100217.25;;;22.04;35.51
16100;BME280;8154;50.830;12.082;2023-04-09T16:18:01;100224.56;;;22.02;35.57
16100;BME280;8154;50.830;12.082;2023-04-09T16:20:27;100228.53;;;22.06;35.41
16100;BME280;8154;50.830;12.082;2023-04-09T16:22:54;100226.22;;;22.03;35.52
16100;BME280;8154;50.830;12.082;2023-04-09T16:25:19;100219.41;;;22.01;35.51
16100;BME280;8154;50.830;12.082;2023-04-09T16:27:46;100225.06;;;21.98;35.63
16100;BME280;8154;50.830;12.082;2023-04-09T16:30:12;100221.56;;;21.97;35.67
16100;BME280;8154;50.830;12.082;2023-04-09T16:32:37;100225.25;;;21.96;35.61
16100;BME280;8154;50.830;12.082;2023-04-09T16:35:04;100224.91;;;21.99;35.65
16100;BME280;8154;50.830;12.082;2023-04-09T16:37:30;100220.91;;;22.03;35.55
16100;BME280;8154;50.830;12.082;2023-04-09T17:38:08;100238.53;;;21.88;35.77
16100;BME280;8154;50.830;12.082;2023-04-09T17:40:38;100237.03;;;21.94;35.72
16100;BME280;8154;50.830;12.082;2023-04-09T17:43:04;100233.91;;;21.90;35.69
16100;BME280;8154;50.830;12.082;2023-04-09T17:45:32;100234.88;;;21.89;35.85
16100;BME280;8154;50.830;12.082;2023-04-09T17:47:58;100239.88;;;21.84;35.88
16100;BME280;8154;50.830;12.082;2023-04-09T17:50:24;100249.34;;;21.87;35.74
16100;BME280;8154;50.830;12.082;2023-04-09T17:52:50;100241.38;;;21.95;35.67
16100;BME280;8154;50.830;12.082;2023-04-09T17:55:16;100249.19;;;21.96;35.70
16100;BME280;8154;50.830;12.082;2023-04-09T17:57:42;100245.88;;;22.02;35.39
16100;BME280;8154;50.830;12.082;2023-04-09T18:00:09;100246.72;;;22.03;35.52
16100;BME280;8154;50.830;12.082;2023-04-09T18:02:35;100249.00;;;22.14;35.32
16100;BME280;8154;50.830;12.082;2023-04-09T18:05:02;100250.84;;;22.21;35.14
16100;BME280;8154;50.830;12.082;2023-04-09T18:07:32;100247.50;;;22.03;35.46
16100;BME280;8154;50.830;12.082;2023-04-09T18:09:59;100241.53;;;21.93;35.73
16100;BME280;8154;50.830;12.082;2023-04-09T18:12:26;100250.50;;;22.08;35.42
16100;BME280;8154;50.830;12.082;2023-04-09T18:14:52;100259.16;;;22.18;35.14
16100;BME280;8154;50.830;12.082;2023-04-09T18:17:18;100263.00;;;22.16;35.27
16100;BME280;8154;50.830;12.082;2023-04-09T18:19:44;100255.50;;;22.19;35.13
16100;BME280;8154;50.830;12.082;2023-04-09T18:22:11;100256.47;;;22.18;35.31
16100;BME280;8154;50.830;12.082;2023-04-09T18:24:37;100257.50;;;22.17;35.18
16100;BME280;8154;50.830;12.082;2023-04-09T18:27:03;100261.97;;;22.25;35.04
16100;BME280;8154;50.830;12.082;2023-04-09T18:29:30;100261.13;;;22.32;34.90
16100;BME280;8154;50.830;12.082;2023-04-09T18:31:56;100264.50;;;22.10;35.26
16100;BME280;8154;50.830;12.082;2023-04-09T18:34:25;100264.66;;;22.01;35.52
16100;BME280;8154;50.830;12.082;2023-04-09T18:36:52;100267.47;;;22.15;35.20
16100;BME280;8154;50.830;12.082;2023-04-09T21:40:30;100317.41;;;22.13;35.12
16100;BME280;8154;50.830;12.082;2023-04-09T21:42:55;100315.06;;;22.26;34.86
16100;BME280;8154;50.830;12.082;2023-04-09T21:45:22;100317.41;;;22.29;34.99
16100;BME280;8154;50.830;12.082;2023-04-09T21:47:48;100316.25;;;22.32;34.82
16100;BME280;8154;50.830;12.082;2023-04-09T21:50:14;100317.06;;;22.32;34.57
16100;BME280;8154;50.830;12.082;2023-04-09T21:52:43;100323.56;;;22.14;35.21
16100;BME280;8154;50.830;12.082;2023-04-09T21:55:10;100319.72;;;22.08;35.36
16100;BME280;8154;50.830;12.082;2023-04-09T21:57:36;100314.44;;;22.24;34.98
16100;BME280;8154;50.830;12.082;2023-04-09T22:00:03;100311.09;;;22.30;34.82
16100;BME280;8154;50.830;12.082;2023-04-09T22:02:30;100310.25;;;22.38;34.71
16100;BME280;8154;50.830;12.082;2023-04-09T22:04:59;100305.75;;;22.38;34.86
16100;BME280;8154;50.830;12.082;2023-04-09T22:07:25;100314.06;;;22.43;34.63
16100;BME280;8154;50.830;12.082;2023-04-09T22:09:56;100309.56;;;22.44;34.63
16100;BME280;8154;50.830;12.082;2023-04-09T22:12:23;100313.38;;;22.49;34.49
16100;BME280;8154;50.830;12.082;2023-04-09T22:14:48;100311.41;;;22.43;34.58
16100;BME280;8154;50.830;12.082;2023-04-09T22:17:14;100304.06;;;22.37;34.69
16100;BME280;8154;50.830;12.082;2023-04-09T22:19:42;100308.72;;;22.43;34.60
16100;BME280;8154;50.830;12.082;2023-04-09T22:22:08;100308.41;;;22.22;34.95
16100;BME280;8154;50.830;12.082;2023-04-09T22:24:36;100317.41;;;22.13;35.28
16100;BME280;8154;50.830;12.082;2023-04-09T22:27:04;100313.41;;;22.25;34.91
16100;BME280;8154;50.830;12.082;2023-04-09T22:29:30;100315.25;;;22.33;34.79
16100;BME280;8154;50.830;12.082;2023-04-09T22:31:56;100314.72;;;22.37;34.60
16100;BME280;8154;50.830;12.082;2023-04-09T22:34:23;100318.56;;;22.43;34.53
16100;BME280;8154;50.830;12.082;2023-04-09T22:36:49;100311.41;;;22.43;34.61
16100;BME280;8154;50.830;12.082;2023-04-09T22:39:15;100314.56;;;22.47;34.58
